sensor_id;sensor_type;location;lat;lon;timestamp;temperature;humidity
31525;DHT22;18134;52.298;8.888;2023-02-28T00:02:35;-2.50;99.90
31525;DHT22;18134;52.298;8.888;2023-02-28T00:05:01;-2.50;99.90
31525;DHT22;18134;52.298;8.888;2023-02-28T00:07:30;-2.50;99.90
31525;DHT22;18134;52.298;8.888;2023-02-28T00:09:56;-2.50;99.90
31525;DHT22;18134;52.298;8.888;2023-02-28T00:12:25;-2.50;99.90
31525;DHT22;18134;52.298;8.888;2023-02-28T00:14:50;-2.50;99.90
31525;DHT22;18134;52.298;8.888;2023-02-28T00:17:16;-2.60;99.90
31525;DHT22;18134;52.298;8.888;2023-02-28T00:19:43;-2.50;99.90
31525;DHT22;18134;52.298;8.888;2023-02-28T00:22:09;-2.50;99.90
31525;DHT22;18134;52.298;8.888;2023-02-28T00:24:34;-2.40;99.90
31525;DHT22;18134;52.298;8.888;2023-02-28T00:27:00;-2.30;99.90
31525;DHT22;18134;52.298;8.888;2023-02-28T00:29:25;-2.20;99.90
31525;DHT22;18134;52.298;8.888;2023-02-28T00:31:53;-2.20;99.90
31525;DHT22;18134;52.298;8.888;2023-02-28T00:34:21;-2.20;99.90
31525;DHT22;18134;52.298;8.888;2023-02-28T00:36:47;-2.30;99.90
31525;DHT22;18134;52.298;8.888;2023-02-28T00:39:18;-2.20;99.90
31525;DHT22;18134;52.298;8.888;2023-02-28T00:41:43;-2.40;99.90
31525;DHT22;18134;52.298;8.888;2023-02-28T00:44:10;-2.50;99.90
31525;DHT22;18134;52.298;8.888;2023-02-28T00:46:35;-2.50;99.90
31525;DHT22;18134;52.298;8.888;2023-02-28T00:49:01;-2.60;99.90
31525;DHT22;18134;52.298;8.888;2023-02-28T00:51:26;-2.70;99.90
31525;DHT22;18134;52.298;8.888;2023-02-28T00:53:54;-2.80;99.90
31525;DHT22;18134;52.298;8.888;2023-02-28T00:56:19;-2.80;99.90
31525;DHT22;18134;52.298;8.888;2023-02-28T00:58:45;-2.80;99.90
31525;DHT22;18134;52.298;8.888;2023-02-28T01:01:13;-2.70;99.90
31525;DHT22;18134;52.298;8.888;2023-02-28T01:03:41;-2.80;99.90
31525;DHT22;18134;52.298;8.888;2023-02-28T01:06:07;-2.80;99.90
31525;DHT22;18134;52.298;8.888;2023-02-28T01:08:33;-2.60;99.90
31525;DHT22;18134;52.298;8.888;2023-02-28T01:11:06;-2.60;99.90
31525;DHT22;18134;52.298;8.888;2023-02-28T01:13:34;-2.30;99.90
31525;DHT22;18134;52.298;8.888;2023-02-28T01:16:01;-2.60;99.90
31525;DHT22;18134;52.298;8.888;2023-02-28T01:18:27;-2.60;99.90
31525;DHT22;18134;52.298;8.888;2023-02-28T01:20:53;-2.50;99.90
31525;DHT22;18134;52.298;8.888;2023-02-28T01:23:20;-2.50;99.90
31525;DHT22;18134;52.298;8.888;2023-02-28T01:25:49;-2.40;99.90
31525;DHT22;18134;52.298;8.888;2023-02-28T01:28:14;-2.40;99.90
31525;DHT22;18134;52.298;8.888;2023-02-28T01:30:42;-2.40;99.90
31525;DHT22;18134;52.298;8.888;2023-02-28T01:33:08;-2.40;99.90
31525;DHT22;18134;52.298;8.888;2023-02-28T01:35:36;-2.40;99.90
31525;DHT22;18134;52.298;8.888;2023-02-28T01:38:02;-2.40;99.90
31525;DHT22;18134;52.298;8.888;2023-02-28T01:40:30;-2.30;99.90
31525;DHT22;18134;52.298;8.888;2023-02-28T01:42:55;-2.30;99.90
31525;DHT22;18134;52.298;8.888;2023-02-28T01:47:46;-2.40;99.90
31525;DHT22;18134;52.298;8.888;2023-02-28T01:50:19;-2.50;99.90
31525;DHT22;18134;52.298;8.888;2023-02-28T01:52:46;-2.70;99.90
31525;DHT22;18134;52.298;8.888;2023-02-28T01:55:12;-2.90;99.90
31525;DHT22;18134;52.298;8.888;2023-02-28T01:57:40;-3.00;99.90
31525;DHT22;18134;52.298;8.888;2023-02-28T02:00:10;-3.20;99.90
31525;DHT22;18134;52.298;8.888;2023-02-28T02:02:40;-3.30;99.90
31525;DHT22;18134;52.298;8.888;2023-02-28T02:05:07;-3.40;99.90
31525;DHT22;18134;52.298;8.888;2023-02-28T02:07:35;-3.40;99.90
31525;DHT22;18134;52.298;8.888;2023-02-28T02:10:24;-3.50;99.90
31525;DHT22;18134;52.298;8.888;2023-02-28T02:15:15;-3.60;99.90
31525;DHT22;18134;52.298;8.888;2023-02-28T02:17:45;-3.60;99.90
31525;DHT22;18134;52.298;8.888;2023-02-28T02:25:41;-3.70;99.90
31525;DHT22;18134;52.298;8.888;2023-02-28T02:36:19;-3.50;99.90
31525;DHT22;18134;52.298;8.888;2023-02-28T02:46:46;-3.10;99.90
31525;DHT22;18134;52.298;8.888;2023-02-28T02:49:15;-3.00;99.90
31525;DHT22;18134;52.298;8.888;2023-02-28T02:51:44;-3.00;99.90
31525;DHT22;18134;52.298;8.888;2023-02-28T02:54:13;-3.00;99.90
31525;DHT22;18134;52.298;8.888;2023-02-28T02:56:44;-3.00;99.90
31525;DHT22;18134;52.298;8.888;2023-02-28T02:59:13;-3.10;99.90
31525;DHT22;18134;52.298;8.888;2023-02-28T03:01:45;-3.20;99.90
31525;DHT22;18134;52.298;8.888;2023-02-28T03:04:13;-3.20;99.90
31525;DHT22;18134;52.298;8.888;2023-02-28T03:06:43;-3.30;99.90
31525;DHT22;18134;52.298;8.888;2023-02-28T03:09:09;-3.30;99.90
31525;DHT22;18134;52.298;8.888;2023-02-28T03:11:36;-3.40;99.90
31525;DHT22;18134;52.298;8.888;2023-02-28T03:16:57;-3.50;99.90
31525;DHT22;18134;52.298;8.888;2023-02-28T03:22:34;-3.70;99.90
31525;DHT22;18134;52.298;8.888;2023-02-28T03:25:22;-3.70;99.90
31525;DHT22;18134;52.298;8.888;2023-02-28T03:28:00;-3.90;99.90
31525;DHT22;18134;52.298;8.888;2023-02-28T03:33:18;-3.90;99.90
31525;DHT22;18134;52.298;8.888;2023-02-28T03:35:56;-4.00;99.90
31525;DHT22;18134;52.298;8.888;2023-02-28T03:41:06;-4.10;99.90
31525;DHT22;18134;52.298;8.888;2023-02-28T03:43:34;-4.10;99.90
31525;DHT22;18134;52.298;8.888;2023-02-28T03:46:01;-4.10;99.90
31525;DHT22;18134;52.298;8.888;2023-02-28T03:48:31;-4.30;99.90
31525;DHT22;18134;52.298;8.888;2023-02-28T03:50:58;-4.40;99.90
31525;DHT22;18134;52.298;8.888;2023-02-28T03:53:32;-4.50;99.90
31525;DHT22;18134;52.298;8.888;2023-02-28T03:58:32;-4.50;99.90
31525;DHT22;18134;52.298;8.888;2023-02-28T04:01:08;-4.50;99.90
31525;DHT22;18134;52.298;8.888;2023-02-28T04:03:35;-4.50;99.90
31525;DHT22;18134;52.298;8.888;2023-02-28T04:06:01;-4.50;99.90
31525;DHT22;18134;52.298;8.888;2023-02-28T04:08:29;-4.60;99.90
31525;DHT22;18134;52.298;8.888;2023-02-28T04:10:56;-4.60;99.90
31525;DHT22;18134;52.298;8.888;2023-02-28T04:13:25;-4.60;99.90
31525;DHT22;18134;52.298;8.888;2023-02-28T04:15:56;-4.60;99.90
31525;DHT22;18134;52.298;8.888;2023-02-28T04:18:26;-4.60;99.90
31525;DHT22;18134;52.298;8.888;2023-02-28T04:20:54;-4.60;99.90
31525;DHT22;18134;52.298;8.888;2023-02-28T04:23:22;-4.70;99.90
31525;DHT22;18134;52.298;8.888;2023-02-28T04:25:50;-4.70;99.90
31525;DHT22;18134;52.298;8.888;2023-02-28T04:28:18;-4.70;99.90
31525;DHT22;18134;52.298;8.888;2023-02-28T04:30:44;-4.70;99.90
31525;DHT22;18134;52.298;8.888;2023-02-28T04:33:09;-4.80;99.90
31525;DHT22;18134;52.298;8.888;2023-02-28T04:35:37;-4.80;99.90
31525;DHT22;18134;52.298;8.888;2023-02-28T04:38:03;-4.70;99.90
31525;DHT22;18134;52.298;8.888;2023-02-28T04:40:28;-4.70;99.90
31525;DHT22;18134;52.298;8.888;2023-02-28T04:42:54;-4.60;99.90
31525;DHT22;18134;52.298;8.888;2023-02-28T04:45:22;-4.70;99.90
31525;DHT22;18134;52.298;8.888;2023-02-28T04:47:47;-4.80;99.90
31525;DHT22;18134;52.298;8.888;2023-02-28T04:50:13;-4.70;99.90
31525;DHT22;18134;52.298;8.888;2023-02-28T04:52:38;-4.60;99.90
31525;DHT22;18134;52.298;8.888;2023-02-28T04:55:06;-4.60;99.90
31525;DHT22;18134;52.298;8.888;2023-02-28T04:57:32;-4.60;99.90
31525;DHT22;18134;52.298;8.888;2023-02-28T04:59:57;-4.70;99.90
31525;DHT22;18134;52.298;8.888;2023-02-28T05:02:27;-4.70;99.90
31525;DHT22;18134;52.298;8.888;2023-02-28T05:04:53;-4.80;99.90
31525;DHT22;18134;52.298;8.888;2023-02-28T05:07:18;-4.80;99.90
31525;DHT22;18134;52.298;8.888;2023-02-28T05:09:44;-4.80;99.90
31525;DHT22;18134;52.298;8.888;2023-02-28T05:12:09;-4.90;99.90
31525;DHT22;18134;52.298;8.888;2023-02-28T05:14:38;-4.90;99.90
31525;DHT22;18134;52.298;8.888;2023-02-28T05:17:06;-4.90;99.90
31525;DHT22;18134;52.298;8.888;2023-02-28T05:19:31;-5.00;99.90
31525;DHT22;18134;52.298;8.888;2023-02-28T05:21:57;-5.00;99.90
31525;DHT22;18134;52.298;8.888;2023-02-28T05:24:22;-5.00;99.90
31525;DHT22;18134;52.298;8.888;2023-02-28T05:26:52;-5.00;99.90
31525;DHT22;18134;52.298;8.888;2023-02-28T05:29:18;-5.10;99.90
31525;DHT22;18134;52.298;8.888;2023-02-28T05:31:44;-5.10;99.90
31525;DHT22;18134;52.298;8.888;2023-02-28T05:34:12;-5.10;99.90
31525;DHT22;18134;52.298;8.888;2023-02-28T05:36:40;-5.10;99.90
31525;DHT22;18134;52.298;8.888;2023-02-28T05:39:08;-5.00;99.90
31525;DHT22;18134;52.298;8.888;2023-02-28T05:41:41;-5.00;99.90
31525;DHT22;18134;52.298;8.888;2023-02-28T05:44:09;-4.80;99.90
31525;DHT22;18134;52.298;8.888;2023-02-28T05:46:34;-5.10;99.90
31525;DHT22;18134;52.298;8.888;2023-02-28T05:49:00;-5.10;99.90
31525;DHT22;18134;52.298;8.888;2023-02-28T05:51:26;-5.10;99.90
31525;DHT22;18134;52.298;8.888;2023-02-28T05:53:51;-5.10;99.90
31525;DHT22;18134;52.298;8.888;2023-02-28T05:56:17;-5.10;99.90
31525;DHT22;18134;52.298;8.888;2023-02-28T05:58:45;-5.00;99.90
31525;DHT22;18134;52.298;8.888;2023-02-28T06:03:58;-4.90;99.90
31525;DHT22;18134;52.298;8.888;2023-02-28T06:06:23;-4.90;99.90
31525;DHT22;18134;52.298;8.888;2023-02-28T06:08:49;-4.90;99.90
31525;DHT22;18134;52.298;8.888;2023-02-28T06:11:17;-4.70;99.90
31525;DHT22;18134;52.298;8.888;2023-02-28T06:13:45;-5.00;99.90
31525;DHT22;18134;52.298;8.888;2023-02-28T06:16:15;-5.00;99.90
31525;DHT22;18134;52.298;8.888;2023-02-28T06:18:40;-5.00;99.90
31525;DHT22;18134;52.298;8.888;2023-02-28T06:21:06;-5.00;99.90
31525;DHT22;18134;52.298;8.888;2023-02-28T06:23:31;-5.00;99.90
31525;DHT22;18134;52.298;8.888;2023-02-28T06:25:57;-5.10;99.90
31525;DHT22;18134;52.298;8.888;2023-02-28T06:28:24;-5.00;99.90
31525;DHT22;18134;52.298;8.888;2023-02-28T06:30:49;-5.00;99.90
31525;DHT22;18134;52.298;8.888;2023-02-28T06:33:15;-4.90;99.90
31525;DHT22;18134;52.298;8.888;2023-02-28T06:35:43;-4.90;99.90
31525;DHT22;18134;52.298;8.888;2023-02-28T06:38:08;-4.90;99.90
31525;DHT22;18134;52.298;8.888;2023-02-28T06:40:34;-5.00;99.90
31525;DHT22;18134;52.298;8.888;2023-02-28T06:43:02;-5.00;99.90
31525;DHT22;18134;52.298;8.888;2023-02-28T06:45:28;-5.00;99.90
31525;DHT22;18134;52.298;8.888;2023-02-28T06:47:53;-4.90;99.90
31525;DHT22;18134;52.298;8.888;2023-02-28T06:50:21;-4.80;99.90
31525;DHT22;18134;52.298;8.888;2023-02-28T06:52:47;-4.80;99.90
31525;DHT22;18134;52.298;8.888;2023-02-28T06:55:13;-4.70;99.90
31525;DHT22;18134;52.298;8.888;2023-02-28T06:57:39;-4.70;99.90
31525;DHT22;18134;52.298;8.888;2023-02-28T07:00:08;-4.70;99.90
31525;DHT22;18134;52.298;8.888;2023-02-28T07:02:37;-4.60;99.90
31525;DHT22;18134;52.298;8.888;2023-02-28T07:05:03;-4.50;99.90
31525;DHT22;18134;52.298;8.888;2023-02-28T07:07:28;-4.40;99.90
31525;DHT22;18134;52.298;8.888;2023-02-28T07:09:54;-4.30;99.90
31525;DHT22;18134;52.298;8.888;2023-02-28T07:12:20;-4.20;99.90
31525;DHT22;18134;52.298;8.888;2023-02-28T07:14:48;-4.10;99.90
31525;DHT22;18134;52.298;8.888;2023-02-28T07:17:14;-4.00;99.90
31525;DHT22;18134;52.298;8.888;2023-02-28T07:19:42;-3.90;99.90
31525;DHT22;18134;52.298;8.888;2023-02-28T07:22:10;-3.80;99.90
31525;DHT22;18134;52.298;8.888;2023-02-28T07:24:35;-3.60;99.90
31525;DHT22;18134;52.298;8.888;2023-02-28T07:27:03;-3.50;99.90
31525;DHT22;18134;52.298;8.888;2023-02-28T07:29:31;-3.30;99.90
31525;DHT22;18134;52.298;8.888;2023-02-28T07:31:59;-3.10;99.90
31525;DHT22;18134;52.298;8.888;2023-02-28T07:34:25;-2.90;99.90
31525;DHT22;18134;52.298;8.888;2023-02-28T07:36:54;-2.50;99.90
31525;DHT22;18134;52.298;8.888;2023-02-28T07:39:20;-2.60;99.90
31525;DHT22;18134;52.298;8.888;2023-02-28T07:41:46;-2.50;99.90
31525;DHT22;18134;52.298;8.888;2023-02-28T07:44:13;-2.40;99.90
31525;DHT22;18134;52.298;8.888;2023-02-28T07:46:39;-2.30;99.90
31525;DHT22;18134;52.298;8.888;2023-02-28T07:49:05;-2.10;99.90
31525;DHT22;18134;52.298;8.888;2023-02-28T07:51:32;-1.80;99.90
31525;DHT22;18134;52.298;8.888;2023-02-28T07:54:00;-1.90;99.90
31525;DHT22;18134;52.298;8.888;2023-02-28T07:56:26;-1.50;99.90
31525;DHT22;18134;52.298;8.888;2023-02-28T07:58:54;-1.70;99.90
31525;DHT22;18134;52.298;8.888;2023-02-28T08:01:20;-1.60;99.90
31525;DHT22;18134;52.298;8.888;2023-02-28T08:03:48;-1.50;99.90
31525;DHT22;18134;52.298;8.888;2023-02-28T08:06:17;-1.30;99.90
31525;DHT22;18134;52.298;8.888;2023-02-28T08:08:48;-1.20;99.90
31525;DHT22;18134;52.298;8.888;2023-02-28T08:11:14;-1.10;99.90
31525;DHT22;18134;52.298;8.888;2023-02-28T08:13:40;-1.00;99.90
31525;DHT22;18134;52.298;8.888;2023-02-28T08:16:07;-0.90;99.90
31525;DHT22;18134;52.298;8.888;2023-02-28T08:18:35;-0.80;99.90
31525;DHT22;18134;52.298;8.888;2023-02-28T08:21:07;-0.70;99.90
31525;DHT22;18134;52.298;8.888;2023-02-28T08:23:35;-0.60;99.90
31525;DHT22;18134;52.298;8.888;2023-02-28T08:26:01;-0.40;99.90
31525;DHT22;18134;52.298;8.888;2023-02-28T08:28:27;-0.40;99.90
31525;DHT22;18134;52.298;8.888;2023-02-28T08:30:55;-0.20;99.90
31525;DHT22;18134;52.298;8.888;2023-02-28T08:33:23;-0.10;99.90
31525;DHT22;18134;52.298;8.888;2023-02-28T08:35:52;0.00;99.90
31525;DHT22;18134;52.298;8.888;2023-02-28T08:38:17;0.10;99.90
31525;DHT22;18134;52.298;8.888;2023-02-28T08:40:45;0.30;99.90
31525;DHT22;18134;52.298;8.888;2023-02-28T08:43:11;0.40;99.90
31525;DHT22;18134;52.298;8.888;2023-02-28T08:45:36;0.50;99.90
31525;DHT22;18134;52.298;8.888;2023-02-28T08:48:02;0.60;99.90
31525;DHT22;18134;52.298;8.888;2023-02-28T08:50:32;0.80;99.90
31525;DHT22;18134;52.298;8.888;2023-02-28T08:53:00;0.80;99.90
31525;DHT22;18134;52.298;8.888;2023-02-28T08:55:28;0.90;99.90
31525;DHT22;18134;52.298;8.888;2023-02-28T08:57:55;0.90;99.90
31525;DHT22;18134;52.298;8.888;2023-02-28T09:00:23;1.00;99.90
31525;DHT22;18134;52.298;8.888;2023-02-28T09:02:49;1.00;99.90
31525;DHT22;18134;52.298;8.888;2023-02-28T09:05:17;1.20;99.90
31525;DHT22;18134;52.298;8.888;2023-02-28T09:07:45;1.30;99.90
31525;DHT22;18134;52.298;8.888;2023-02-28T09:10:13;1.40;99.90
31525;DHT22;18134;52.298;8.888;2023-02-28T09:12:38;1.40;99.90
31525;DHT22;18134;52.298;8.888;2023-02-28T09:15:06;1.50;99.90
31525;DHT22;18134;52.298;8.888;2023-02-28T09:17:32;1.60;99.90
31525;DHT22;18134;52.298;8.888;2023-02-28T09:19:58;1.70;99.90
31525;DHT22;18134;52.298;8.888;2023-02-28T09:22:25;1.90;99.90
31525;DHT22;18134;52.298;8.888;2023-02-28T09:24:51;2.00;99.90
31525;DHT22;18134;52.298;8.888;2023-02-28T09:27:16;2.10;99.90
31525;DHT22;18134;52.298;8.888;2023-02-28T09:29:42;2.20;99.90
31525;DHT22;18134;52.298;8.888;2023-02-28T09:32:07;2.40;99.90
31525;DHT22;18134;52.298;8.888;2023-02-28T09:34:35;2.70;99.90
31525;DHT22;18134;52.298;8.888;2023-02-28T09:37:04;2.90;99.90
31525;DHT22;18134;52.298;8.888;2023-02-28T09:39:32;3.20;99.90
31525;DHT22;18134;52.298;8.888;2023-02-28T09:42:00;3.20;99.90
31525;DHT22;18134;52.298;8.888;2023-02-28T09:44:36;3.30;99.90
31525;DHT22;18134;52.298;8.888;2023-02-28T09:49:38;3.50;99.90
31525;DHT22;18134;52.298;8.888;2023-02-28T09:52:07;3.70;99.90
31525;DHT22;18134;52.298;8.888;2023-02-28T09:54:34;3.80;99.90
31525;DHT22;18134;52.298;8.888;2023-02-28T09:57:01;3.80;99.90
31525;DHT22;18134;52.298;8.888;2023-02-28T10:04:59;4.00;99.90
31525;DHT22;18134;52.298;8.888;2023-02-28T10:10:04;4.30;99.90
31525;DHT22;18134;52.298;8.888;2023-02-28T10:12:32;4.40;99.90
31525;DHT22;18134;52.298;8.888;2023-02-28T10:14:58;4.50;99.90
31525;DHT22;18134;52.298;8.888;2023-02-28T10:17:30;4.60;99.90
31525;DHT22;18134;52.298;8.888;2023-02-28T10:22:37;4.90;99.90
31525;DHT22;18134;52.298;8.888;2023-02-28T10:25:18;4.90;99.90
31525;DHT22;18134;52.298;8.888;2023-02-28T10:27:46;5.00;99.90
31525;DHT22;18134;52.298;8.888;2023-02-28T10:30:12;5.00;99.90
31525;DHT22;18134;52.298;8.888;2023-02-28T10:32:39;5.10;99.90
31525;DHT22;18134;52.298;8.888;2023-02-28T10:37:43;5.40;99.90
31525;DHT22;18134;52.298;8.888;2023-02-28T10:40:31;5.60;99.90
31525;DHT22;18134;52.298;8.888;2023-02-28T10:42:59;5.80;99.90
31525;DHT22;18134;52.298;8.888;2023-02-28T10:45:25;5.90;99.90
31525;DHT22;18134;52.298;8.888;2023-02-28T10:47:59;5.80;99.90
31525;DHT22;18134;52.298;8.888;2023-02-28T10:50:26;6.00;99.90
31525;DHT22;18134;52.298;8.888;2023-02-28T10:52:55;6.00;99.90
31525;DHT22;18134;52.298;8.888;2023-02-28T10:55:30;6.00;99.90
31525;DHT22;18134;52.298;8.888;2023-02-28T10:57:56;6.20;99.90
31525;DHT22;18134;52.298;8.888;2023-02-28T11:00:23;6.10;99.90
31525;DHT22;18134;52.298;8.888;2023-02-28T11:02:50;6.10;99.90
31525;DHT22;18134;52.298;8.888;2023-02-28T11:05:31;6.10;99.90
31525;DHT22;18134;52.298;8.888;2023-02-28T11:10:34;6.10;99.90
31525;DHT22;18134;52.298;8.888;2023-02-28T11:13:00;5.70;99.90
31525;DHT22;18134;52.298;8.888;2023-02-28T11:17:56;5.80;99.90
31525;DHT22;18134;52.298;8.888;2023-02-28T11:20:25;5.80;99.90
31525;DHT22;18134;52.298;8.888;2023-02-28T11:22:54;5.70;99.90
31525;DHT22;18134;52.298;8.888;2023-02-28T11:25:45;5.80;99.90
31525;DHT22;18134;52.298;8.888;2023-02-28T11:31:00;5.60;99.90
31525;DHT22;18134;52.298;8.888;2023-02-28T11:36:00;5.70;99.90
31525;DHT22;18134;52.298;8.888;2023-02-28T11:38:28;5.80;99.90
31525;DHT22;18134;52.298;8.888;2023-02-28T11:48:57;6.30;99.90
31525;DHT22;18134;52.298;8.888;2023-02-28T11:51:23;6.20;99.90
31525;DHT22;18134;52.298;8.888;2023-02-28T12:06:22;6.20;99.90
31525;DHT22;18134;52.298;8.888;2023-02-28T12:22:01;6.70;99.90
31525;DHT22;18134;52.298;8.888;2023-02-28T12:26:59;6.50;99.90
31525;DHT22;18134;52.298;8.888;2023-02-28T12:34:31;6.50;99.90
31525;DHT22;18134;52.298;8.888;2023-02-28T12:36:58;6.40;99.90
31525;DHT22;18134;52.298;8.888;2023-02-28T12:39:29;6.40;99.90
31525;DHT22;18134;52.298;8.888;2023-02-28T12:42:03;6.50;99.90
31525;DHT22;18134;52.298;8.888;2023-02-28T12:44:31;6.50;99.90
31525;DHT22;18134;52.298;8.888;2023-02-28T12:47:03;6.50;99.90
31525;DHT22;18134;52.298;8.888;2023-02-28T12:49:43;6.80;99.90
31525;DHT22;18134;52.298;8.888;2023-02-28T12:52:17;7.00;99.90
31525;DHT22;18134;52.298;8.888;2023-02-28T12:54:56;6.80;99.90
31525;DHT22;18134;52.298;8.888;2023-02-28T12:57:31;6.20;99.90
31525;DHT22;18134;52.298;8.888;2023-02-28T13:00:03;6.10;99.90
31525;DHT22;18134;52.298;8.888;2023-02-28T13:10:05;6.20;99.90
31525;DHT22;18134;52.298;8.888;2023-02-28T13:12:35;6.50;99.90
31525;DHT22;18134;52.298;8.888;2023-02-28T13:15:05;6.50;99.90
31525;DHT22;18134;52.298;8.888;2023-02-28T13:17:31;6.70;99.90
31525;DHT22;18134;52.298;8.888;2023-02-28T13:19:58;6.60;99.90
31525;DHT22;18134;52.298;8.888;2023-02-28T13:22:46;6.50;99.90
31525;DHT22;18134;52.298;8.888;2023-02-28T13:25:49;6.40;99.90
31525;DHT22;18134;52.298;8.888;2023-02-28T13:28:00;6.50;99.90
31525;DHT22;18134;52.298;8.888;2023-02-28T13:35:48;7.20;99.90
31525;DHT22;18134;52.298;8.888;2023-02-28T13:38:21;7.40;99.90
31525;DHT22;18134;52.298;8.888;2023-02-28T13:40:50;7.50;99.60
31525;DHT22;18134;52.298;8.888;2023-02-28T13:43:18;7.50;98.90
31525;DHT22;18134;52.298;8.888;2023-02-28T13:48:31;7.30;98.20
31525;DHT22;18134;52.298;8.888;2023-02-28T13:50:59;7.50;98.20
31525;DHT22;18134;52.298;8.888;2023-02-28T13:56:07;7.80;97.80
31525;DHT22;18134;52.298;8.888;2023-02-28T14:06:29;7.00;97.40
31525;DHT22;18134;52.298;8.888;2023-02-28T14:09:01;6.90;98.00
31525;DHT22;18134;52.298;8.888;2023-02-28T14:11:36;7.20;98.90
31525;DHT22;18134;52.298;8.888;2023-02-28T14:14:03;7.50;98.10
31525;DHT22;18134;52.298;8.888;2023-02-28T14:16:40;7.70;97.20
31525;DHT22;18134;52.298;8.888;2023-02-28T14:19:13;7.40;97.30
31525;DHT22;18134;52.298;8.888;2023-02-28T14:21:50;7.20;97.20
31525;DHT22;18134;52.298;8.888;2023-02-28T14:24:22;7.20;97.40
31525;DHT22;18134;52.298;8.888;2023-02-28T14:31:54;7.60;98.40
31525;DHT22;18134;52.298;8.888;2023-02-28T14:34:32;7.80;97.70
31525;DHT22;18134;52.298;8.888;2023-02-28T14:37:00;7.90;97.90
31525;DHT22;18134;52.298;8.888;2023-02-28T14:39:27;7.80;97.30
31525;DHT22;18134;52.298;8.888;2023-02-28T14:41:56;7.50;97.50
31525;DHT22;18134;52.298;8.888;2023-02-28T14:46:50;7.30;98.60
31525;DHT22;18134;52.298;8.888;2023-02-28T14:49:25;7.40;99.10
31525;DHT22;18134;52.298;8.888;2023-02-28T14:52:03;7.60;99.90
31525;DHT22;18134;52.298;8.888;2023-02-28T14:54:31;7.50;98.40
31525;DHT22;18134;52.298;8.888;2023-02-28T14:56:56;7.40;98.40
31525;DHT22;18134;52.298;8.888;2023-02-28T14:59:29;7.50;99.10
31525;DHT22;18134;52.298;8.888;2023-02-28T15:04:40;7.70;99.70
31525;DHT22;18134;52.298;8.888;2023-02-28T15:07:16;7.60;98.80
31525;DHT22;18134;52.298;8.888;2023-02-28T15:09:41;7.50;98.20
31525;DHT22;18134;52.298;8.888;2023-02-28T15:12:07;7.40;98.20
31525;DHT22;18134;52.298;8.888;2023-02-28T15:14:35;7.40;98.00
31525;DHT22;18134;52.298;8.888;2023-02-28T15:17:06;7.10;98.30
31525;DHT22;18134;52.298;8.888;2023-02-28T15:19:34;7.10;99.30
31525;DHT22;18134;52.298;8.888;2023-02-28T15:26:57;7.00;99.20
31525;DHT22;18134;52.298;8.888;2023-02-28T15:29:25;7.40;99.90
31525;DHT22;18134;52.298;8.888;2023-02-28T15:31:55;7.20;99.60
31525;DHT22;18134;52.298;8.888;2023-02-28T15:34:25;7.10;99.30
31525;DHT22;18134;52.298;8.888;2023-02-28T15:37:06;7.10;99.90
31525;DHT22;18134;52.298;8.888;2023-02-28T15:39:32;7.20;99.90
31525;DHT22;18134;52.298;8.888;2023-02-28T15:42:18;7.00;99.90
31525;DHT22;18134;52.298;8.888;2023-02-28T15:44:44;6.90;99.70
31525;DHT22;18134;52.298;8.888;2023-02-28T15:47:20;6.80;99.90
31525;DHT22;18134;52.298;8.888;2023-02-28T15:49:54;6.90;99.90
31525;DHT22;18134;52.298;8.888;2023-02-28T15:52:22;6.90;99.90
31525;DHT22;18134;52.298;8.888;2023-02-28T15:54:49;6.80;99.90
31525;DHT22;18134;52.298;8.888;2023-02-28T15:57:19;6.60;99.90
31525;DHT22;18134;52.298;8.888;2023-02-28T15:59:50;6.40;99.90
31525;DHT22;18134;52.298;8.888;2023-02-28T16:02:20;6.20;99.90
31525;DHT22;18134;52.298;8.888;2023-02-28T16:04:55;6.20;99.90
31525;DHT22;18134;52.298;8.888;2023-02-28T16:07:22;6.20;99.90
31525;DHT22;18134;52.298;8.888;2023-02-28T16:09:49;6.20;99.90
31525;DHT22;18134;52.298;8.888;2023-02-28T16:12:15;6.10;99.90
31525;DHT22;18134;52.298;8.888;2023-02-28T16:14:41;6.00;99.90
31525;DHT22;18134;52.298;8.888;2023-02-28T16:17:19;6.00;99.90
31525;DHT22;18134;52.298;8.888;2023-02-28T16:19:48;5.80;99.90
31525;DHT22;18134;52.298;8.888;2023-02-28T16:22:13;5.70;99.90
31525;DHT22;18134;52.298;8.888;2023-02-28T16:24:39;5.60;99.90
31525;DHT22;18134;52.298;8.888;2023-02-28T16:27:05;5.50;99.90
31525;DHT22;18134;52.298;8.888;2023-02-28T16:29:32;5.50;99.90
31525;DHT22;18134;52.298;8.888;2023-02-28T16:32:00;5.30;99.90
31525;DHT22;18134;52.298;8.888;2023-02-28T16:34:26;5.20;99.90
31525;DHT22;18134;52.298;8.888;2023-02-28T16:36:52;5.20;99.90
31525;DHT22;18134;52.298;8.888;2023-02-28T16:39:18;5.00;99.90
31525;DHT22;18134;52.298;8.888;2023-02-28T16:41:46;4.90;99.90
31525;DHT22;18134;52.298;8.888;2023-02-28T16:44:14;4.70;99.90
31525;DHT22;18134;52.298;8.888;2023-02-28T16:46:44;4.70;99.90
31525;DHT22;18134;52.298;8.888;2023-02-28T16:49:12;4.60;99.90
31525;DHT22;18134;52.298;8.888;2023-02-28T16:51:38;4.60;99.90
31525;DHT22;18134;52.298;8.888;2023-02-28T16:54:06;4.40;99.90
31525;DHT22;18134;52.298;8.888;2023-02-28T16:56:34;4.30;99.90
31525;DHT22;18134;52.298;8.888;2023-02-28T16:59:02;4.20;99.90
31525;DHT22;18134;52.298;8.888;2023-02-28T17:01:28;4.20;99.90
31525;DHT22;18134;52.298;8.888;2023-02-28T17:03:54;4.10;99.90
31525;DHT22;18134;52.298;8.888;2023-02-28T17:06:21;4.00;99.90
31525;DHT22;18134;52.298;8.888;2023-02-28T17:08:48;3.90;99.90
31525;DHT22;18134;52.298;8.888;2023-02-28T17:11:18;3.80;99.90
31525;DHT22;18134;52.298;8.888;2023-02-28T17:13:45;3.70;99.90
31525;DHT22;18134;52.298;8.888;2023-02-28T17:18:45;3.60;99.90
31525;DHT22;18134;52.298;8.888;2023-02-28T17:21:15;3.50;99.90
31525;DHT22;18134;52.298;8.888;2023-02-28T17:23:44;3.30;99.90
31525;DHT22;18134;52.298;8.888;2023-02-28T17:26:16;3.20;99.90
31525;DHT22;18134;52.298;8.888;2023-02-28T17:28:45;3.10;99.90
31525;DHT22;18134;52.298;8.888;2023-02-28T17:31:11;2.90;99.90
31525;DHT22;18134;52.298;8.888;2023-02-28T17:33:37;2.80;99.90
31525;DHT22;18134;52.298;8.888;2023-02-28T17:36:03;2.60;99.90
31525;DHT22;18134;52.298;8.888;2023-02-28T17:38:29;2.50;99.90
31525;DHT22;18134;52.298;8.888;2023-02-28T17:40:55;2.30;99.90
31525;DHT22;18134;52.298;8.888;2023-02-28T17:43:26;2.20;99.90
31525;DHT22;18134;52.298;8.888;2023-02-28T17:45:54;2.00;99.90
31525;DHT22;18134;52.298;8.888;2023-02-28T17:48:20;2.10;99.90
31525;DHT22;18134;52.298;8.888;2023-02-28T17:50:45;1.70;99.90
31525;DHT22;18134;52.298;8.888;2023-02-28T17:53:11;1.60;99.90
31525;DHT22;18134;52.298;8.888;2023-02-28T17:55:41;1.60;99.90
31525;DHT22;18134;52.298;8.888;2023-02-28T17:58:09;1.60;99.90
31525;DHT22;18134;52.298;8.888;2023-02-28T18:00:36;1.50;99.90
31525;DHT22;18134;52.298;8.888;2023-02-28T18:03:05;1.40;99.90
31525;DHT22;18134;52.298;8.888;2023-02-28T18:05:31;1.40;99.90
31525;DHT22;18134;52.298;8.888;2023-02-28T18:07:59;1.50;99.90
31525;DHT22;18134;52.298;8.888;2023-02-28T18:10:27;1.40;99.90
31525;DHT22;18134;52.298;8.888;2023-02-28T18:12:53;1.40;99.90
31525;DHT22;18134;52.298;8.888;2023-02-28T18:15:19;1.30;99.90
31525;DHT22;18134;52.298;8.888;2023-02-28T18:17:46;1.20;99.90
31525;DHT22;18134;52.298;8.888;2023-02-28T18:20:14;1.10;99.90